Time;durP1;ratioP1;P1;durP2;ratioP2;P2;SDS_P1;SDS_P2;PMS_P1;PMS_P2;Temp;Humidity;BMP_temperature;BMP_pressure;BME280_temperature;BME280_humidity;BME280_pressure;Samples;Min_cycle;Max_cycle;Signal;HPM_P1;HPM_P2
2021/09/30 00:01:41;;;;;;;8.18;5.72;;;;;;;;;;6240771;23;20000;-79
2021/09/30 00:04:08;;;;;;;6.95;5.88;;;;;;;;;;6240144;23;20082;-90
2021/09/30 00:06:34;;;;;;;10.13;5.53;;;;;;;;;;6238617;23;20079;-77
2021/09/30 00:09:00;;;;;;;7.93;5.60;;;;;;;;;;6240418;23;20464;-78
2021/09/30 00:11:28;;;;;;;5.90;5.18;;;;;;;;;;6240638;23;20010;-80
2021/09/30 00:47:07;;;;;;;10.60;5.28;;;;;;;;;;6240385;23;20019;-78
2021/09/30 00:49:22;;;;;;;8.63;5.45;;;;;;;;;;6226892;23;20020;-89
2021/09/30 01:32:38;;;;;;;9.75;5.72;;;;;;;;;;6233682;23;20023;-80
2021/09/30 02:21:44;;;;;;;9.45;5.55;;;;;;;;;;6241524;23;20716;-78
2021/09/30 02:23:58;;;;;;;8.50;5.10;;;;;;;;;;6216811;23;20016;-73
2021/09/30 02:58:42;;;;;;;10.63;6.65;;;;;;;;;;6238991;23;20340;-75
2021/09/30 03:01:12;;;;;;;8.30;6.22;;;;;;;;;;6210934;23;20019;-74
2021/09/30 03:03:39;;;;;;;10.25;6.47;;;;;;;;;;6234856;23;20079;-81
2021/09/30 03:06:06;;;;;;;11.02;6.82;;;;;;;;;;6235860;23;20027;-80
2021/09/30 03:08:42;;;;;;;9.05;6.50;;;;;;;;;;6234791;23;20003;-82
2021/09/30 03:11:08;;;;;;;10.65;6.90;;;;;;;;;;6236083;23;20004;-74
2021/09/30 03:13:35;;;;;;;9.35;6.60;;;;;;;;;;6235997;23;20417;-75
2021/09/30 03:16:09;;;;;;;9.35;6.38;;;;;;;;;;6234647;23;20079;-74
2021/09/30 03:23:41;;;;;;;16.65;7.03;;;;;;;;;;6235418;23;20089;-86
2021/09/30 03:26:08;;;;;;;10.23;6.85;;;;;;;;;;6235474;23;20054;-74
2021/09/30 03:28:34;;;;;;;10.60;7.07;;;;;;;;;;6234936;23;20387;-81
2021/09/30 03:31:01;;;;;;;8.98;6.75;;;;;;;;;;6233498;23;20083;-76
2021/09/30 03:33:27;;;;;;;16.60;7.28;;;;;;;;;;6234832;23;20016;-77
2021/09/30 03:35:54;;;;;;;10.43;6.97;;;;;;;;;;6235817;23;20039;-76
2021/09/30 03:38:21;;;;;;;10.68;7.57;;;;;;;;;;6235140;23;20016;-80
2021/09/30 03:40:48;;;;;;;11.40;7.30;;;;;;;;;;6235402;23;20008;-83
2021/09/30 03:43:14;;;;;;;8.27;7.30;;;;;;;;;;6233566;23;20006;-76
2021/09/30 03:45:41;;;;;;;13.18;7.57;;;;;;;;;;6235194;23;20015;-89
2021/09/30 03:48:07;;;;;;;12.05;7.32;;;;;;;;;;6234534;23;20227;-74
2021/09/30 03:51:23;;;;;;;10.32;7.38;;;;;;;;;;6233047;23;20019;-79
2021/09/30 03:53:37;;;;;;;11.23;7.38;;;;;;;;;;6219013;22;20004;-77
2021/09/30 03:56:50;;;;;;;11.13;6.43;;;;;;;;;;6235990;23;20578;-80
2021/09/30 03:59:19;;;;;;;13.57;6.68;;;;;;;;;;6219289;23;20012;-83
2021/09/30 04:01:48;;;;;;;10.32;6.65;;;;;;;;;;6233276;23;20011;-84
2021/09/30 04:04:15;;;;;;;8.77;5.80;;;;;;;;;;6234329;23;20042;-80
2021/09/30 04:06:41;;;;;;;12.40;5.82;;;;;;;;;;6235414;23;20038;-78
2021/09/30 04:09:09;;;;;;;10.02;6.38;;;;;;;;;;6235119;23;20031;-76
2021/09/30 04:11:35;;;;;;;10.02;6.57;;;;;;;;;;6235283;23;20019;-80
2021/09/30 04:14:02;;;;;;;9.85;6.20;;;;;;;;;;6233220;23;20079;-84
2021/09/30 04:16:29;;;;;;;9.70;6.53;;;;;;;;;;6234826;23;19996;-83
2021/09/30 04:18:55;;;;;;;9.52;6.60;;;;;;;;;;6234625;23;20005;-77
2021/09/30 04:21:21;;;;;;;13.10;6.28;;;;;;;;;;6234089;23;19996;-77
2021/09/30 04:23:47;;;;;;;13.10;6.70;;;;;;;;;;6233468;23;20019;-78
2021/09/30 04:26:13;;;;;;;8.45;6.15;;;;;;;;;;6231850;23;20000;-77
2021/09/30 04:28:39;;;;;;;8.57;6.32;;;;;;;;;;6234824;23;20004;-83
2021/09/30 04:31:06;;;;;;;11.30;5.97;;;;;;;;;;6234694;23;20000;-75
2021/09/30 04:33:32;;;;;;;9.43;6.53;;;;;;;;;;6235202;23;20016;-74
2021/09/30 04:35:58;;;;;;;10.63;7.05;;;;;;;;;;6232313;23;20079;-83
2021/09/30 04:38:24;;;;;;;10.15;6.78;;;;;;;;;;6229259;23;20015;-76
2021/09/30 04:40:50;;;;;;;10.32;6.28;;;;;;;;;;6230599;23;20004;-87
2021/09/30 04:43:16;;;;;;;11.05;6.65;;;;;;;;;;6231083;23;20202;-82
2021/09/30 04:45:42;;;;;;;10.10;6.57;;;;;;;;;;6231350;23;20028;-80
2021/09/30 04:48:10;;;;;;;11.77;6.85;;;;;;;;;;6227813;23;20023;-75
2021/09/30 04:50:36;;;;;;;12.70;7.47;;;;;;;;;;6229432;23;20612;-83
2021/09/30 04:53:03;;;;;;;12.35;7.25;;;;;;;;;;6231176;22;20004;-74
2021/09/30 04:55:29;;;;;;;15.50;7.75;;;;;;;;;;6206030;23;20004;-84
2021/09/30 04:57:55;;;;;;;11.95;7.55;;;;;;;;;;6232216;23;20069;-75
2021/09/30 05:00:21;;;;;;;14.18;7.07;;;;;;;;;;6228337;23;20004;-81
2021/09/30 05:02:47;;;;;;;13.02;7.45;;;;;;;;;;6232669;23;20079;-81
2021/09/30 05:05:15;;;;;;;10.75;7.47;;;;;;;;;;6230536;23;20094;-76
2021/09/30 05:07:41;;;;;;;10.88;7.85;;;;;;;;;;6231250;23;20345;-76
2021/09/30 05:10:11;;;;;;;10.45;7.25;;;;;;;;;;6231902;23;20000;-81
2021/09/30 05:12:37;;;;;;;11.75;8.05;;;;;;;;;;6229919;23;20007;-79
2021/09/30 05:15:04;;;;;;;9.20;8.30;;;;;;;;;;6231162;23;20536;-73
2021/09/30 05:17:32;;;;;;;12.18;8.10;;;;;;;;;;6230652;23;20004;-74
2021/09/30 05:19:58;;;;;;;11.18;7.75;;;;;;;;;;6231468;23;20034;-76
2021/09/30 05:22:24;;;;;;;11.18;8.38;;;;;;;;;;6229261;23;20004;-74
2021/09/30 05:24:50;;;;;;;9.93;7.47;;;;;;;;;;6230264;23;20008;-74
2021/09/30 05:27:16;;;;;;;11.35;8.25;;;;;;;;;;6230454;23;20004;-75
2021/09/30 05:29:43;;;;;;;14.65;8.52;;;;;;;;;;6230856;23;20014;-86
2021/09/30 05:32:09;;;;;;;12.85;8.18;;;;;;;;;;6229236;23;20732;-74
2021/09/30 05:34:35;;;;;;;14.75;9.00;;;;;;;;;;6230155;23;20011;-71
2021/09/30 05:37:01;;;;;;;13.02;7.95;;;;;;;;;;6230131;23;20000;-73
2021/09/30 05:39:27;;;;;;;17.35;9.77;;;;;;;;;;6230286;23;20012;-75
2021/09/30 05:41:54;;;;;;;15.80;7.22;;;;;;;;;;6228545;23;20001;-74
2021/09/30 05:44:24;;;;;;;11.57;7.03;;;;;;;;;;6231212;23;20029;-78
2021/09/30 05:46:54;;;;;;;11.23;6.95;;;;;;;;;;6230615;23;20004;-72
2021/09/30 05:49:22;;;;;;;12.30;7.38;;;;;;;;;;6201173;23;20357;-72
2021/09/30 05:51:48;;;;;;;13.15;8.00;;;;;;;;;;6229480;22;20004;-77
2021/09/30 05:54:14;;;;;;;11.63;7.28;;;;;;;;;;6227945;23;19997;-79
2021/09/30 05:56:40;;;;;;;11.68;6.20;;;;;;;;;;6230444;23;20004;-71
2021/09/30 05:59:07;;;;;;;8.93;6.25;;;;;;;;;;6229932;23;20010;-84
2021/09/30 06:01:52;;;;;;;11.00;7.03;;;;;;;;;;6230949;23;20086;-77
2021/09/30 06:10:12;;;;;;;11.02;7.15;;;;;;;;;;6232121;23;20023;-81
2021/09/30 06:12:41;;;;;;;9.55;6.80;;;;;;;;;;6232178;23;20095;-72
2021/09/30 06:15:13;;;;;;;9.90;6.53;;;;;;;;;;6230626;23;20012;-75
2021/09/30 06:17:42;;;;;;;9.70;6.95;;;;;;;;;;6231423;23;20012;-79
2021/09/30 06:20:08;;;;;;;12.13;6.82;;;;;;;;;;6231865;23;20443;-77
2021/09/30 06:22:34;;;;;;;8.60;6.28;;;;;;;;;;6229840;23;20087;-77
2021/09/30 06:25:01;;;;;;;10.98;7.03;;;;;;;;;;6235808;23;20134;-86
2021/09/30 06:27:27;;;;;;;9.90;6.80;;;;;;;;;;6235946;23;20086;-88
2021/09/30 06:29:53;;;;;;;13.25;7.35;;;;;;;;;;6235346;23;20500;-86
2021/09/30 06:32:19;;;;;;;11.32;7.53;;;;;;;;;;6235359;23;20107;-77
2021/09/30 06:34:45;;;;;;;13.00;7.30;;;;;;;;;;6233744;23;20015;-75
2021/09/30 06:37:12;;;;;;;11.40;7.22;;;;;;;;;;6234981;23;20038;-74
2021/09/30 06:39:38;;;;;;;9.43;6.65;;;;;;;;;;6234031;23;20000;-71
2021/09/30 06:42:04;;;;;;;14.13;7.43;;;;;;;;;;6233085;23;20040;-72
2021/09/30 06:44:30;;;;;;;11.05;7.25;;;;;;;;;;6204001;23;20020;-72
2021/09/30 06:46:56;;;;;;;9.73;7.03;;;;;;;;;;6233470;23;20328;-72
2021/09/30 06:49:22;;;;;;;10.63;6.68;;;;;;;;;;6206678;23;20582;-72
2021/09/30 06:51:50;;;;;;;9.63;6.47;;;;;;;;;;6233320;22;20779;-72
2021/09/30 06:54:17;;;;;;;9.25;7.03;;;;;;;;;;6234263;23;20069;-72
2021/09/30 06:56:47;;;;;;;11.95;7.43;;;;;;;;;;6231568;23;20024;-72
2021/09/30 06:59:19;;;;;;;9.15;7.20;;;;;;;;;;6233296;23;20404;-72
2021/09/30 07:01:45;;;;;;;9.45;7.38;;;;;;;;;;6233803;23;20007;-72
2021/09/30 07:04:12;;;;;;;11.43;6.82;;;;;;;;;;6233349;23;20019;-73
2021/09/30 07:06:38;;;;;;;12.52;6.97;;;;;;;;;;6232958;23;20004;-72
2021/09/30 07:09:05;;;;;;;10.75;7.10;;;;;;;;;;6232373;23;20137;-73
2021/09/30 07:11:31;;;;;;;17.17;6.88;;;;;;;;;;6233392;23;20003;-73
2021/09/30 07:13:57;;;;;;;11.07;6.82;;;;;;;;;;6232858;23;20008;-73
2021/09/30 07:16:24;;;;;;;19.20;7.68;;;;;;;;;;6233149;23;20057;-73
2021/09/30 07:18:50;;;;;;;10.75;6.78;;;;;;;;;;6233308;23;20018;-72
2021/09/30 07:21:17;;;;;;;14.13;7.05;;;;;;;;;;6231786;23;20597;-72
2021/09/30 07:23:44;;;;;;;10.35;7.20;;;;;;;;;;6232752;23;20031;-72
2021/09/30 07:26:11;;;;;;;14.68;6.57;;;;;;;;;;6233172;23;20004;-72
2021/09/30 07:28:38;;;;;;;10.60;6.85;;;;;;;;;;6233311;23;20004;-72
2021/09/30 07:31:04;;;;;;;13.80;7.93;;;;;;;;;;6231756;23;20004;-72
2021/09/30 07:33:31;;;;;;;20.00;7.65;;;;;;;;;;6232970;23;20083;-72
2021/09/30 07:35:57;;;;;;;13.82;7.28;;;;;;;;;;6233864;23;20498;-77
2021/09/30 07:38:24;;;;;;;13.07;7.32;;;;;;;;;;6233385;23;20015;-77
2021/09/30 07:40:51;;;;;;;11.98;6.22;;;;;;;;;;6232325;23;20000;-77
2021/09/30 07:43:17;;;;;;;11.25;5.78;;;;;;;;;;6231878;23;20004;-77
2021/09/30 07:45:44;;;;;;;10.48;5.85;;;;;;;;;;6232568;23;20356;-77
2021/09/30 07:48:10;;;;;;;9.13;5.80;;;;;;;;;;6232966;23;20007;-77
2021/09/30 07:50:38;;;;;;;10.63;5.20;;;;;;;;;;6233467;23;20004;-78
2021/09/30 07:53:04;;;;;;;25.10;6.40;;;;;;;;;;6233083;22;20525;-77
2021/09/30 07:55:30;;;;;;;6.78;4.53;;;;;;;;;;6204534;23;20325;-77
2021/09/30 07:57:57;;;;;;;9.52;5.03;;;;;;;;;;6232704;23;20440;-77
2021/09/30 08:00:23;;;;;;;13.00;7.07;;;;;;;;;;6233291;23;19996;-75
2021/09/30 08:02:49;;;;;;;10.25;5.53;;;;;;;;;;6232683;23;20036;-77
2021/09/30 08:05:16;;;;;;;7.80;5.13;;;;;;;;;;6231837;23;20090;-77
2021/09/30 08:07:44;;;;;;;12.98;5.93;;;;;;;;;;6230443;23;20011;-77
2021/09/30 08:10:10;;;;;;;9.35;6.18;;;;;;;;;;6232482;23;20014;-76
2021/09/30 08:12:36;;;;;;;9.38;6.60;;;;;;;;;;6231975;23;20043;-77
2021/09/30 08:15:02;;;;;;;9.95;6.90;;;;;;;;;;6232746;23;20008;-77
2021/09/30 08:17:29;;;;;;;10.75;6.88;;;;;;;;;;6233338;23;20008;-75
2021/09/30 08:19:55;;;;;;;9.35;6.45;;;;;;;;;;6230915;23;20155;-76
2021/09/30 08:22:21;;;;;;;10.27;7.32;;;;;;;;;;6230879;23;19996;-76
2021/09/30 08:24:47;;;;;;;12.98;6.43;;;;;;;;;;6228485;23;20020;-78
2021/09/30 08:27:13;;;;;;;14.10;7.25;;;;;;;;;;6230196;23;19996;-77
2021/09/30 08:29:39;;;;;;;12.48;6.75;;;;;;;;;;6231936;23;20011;-77
2021/09/30 08:32:06;;;;;;;15.63;8.25;;;;;;;;;;6230123;23;20004;-77
2021/09/30 08:34:32;;;;;;;9.35;6.60;;;;;;;;;;6233015;23;20004;-76
2021/09/30 08:36:58;;;;;;;10.80;7.15;;;;;;;;;;6232868;23;20441;-77
2021/09/30 08:39:25;;;;;;;11.52;7.25;;;;;;;;;;6230196;23;20010;-76
2021/09/30 08:41:51;;;;;;;14.13;6.50;;;;;;;;;;6231902;23;20075;-77
2021/09/30 08:44:17;;;;;;;9.98;6.50;;;;;;;;;;6232079;23;20008;-77
2021/09/30 08:46:43;;;;;;;8.48;6.35;;;;;;;;;;6232437;23;20014;-77
2021/09/30 08:49:10;;;;;;;8.88;5.50;;;;;;;;;;6229939;23;20016;-76
2021/09/30 08:51:37;;;;;;;11.00;6.45;;;;;;;;;;6231887;22;20083;-76
2021/09/30 08:54:03;;;;;;;11.73;7.15;;;;;;;;;;6231151;23;20572;-77
2021/09/30 08:56:33;;;;;;;9.63;7.18;;;;;;;;;;6203896;23;20442;-77
2021/09/30 08:59:11;;;;;;;10.73;8.05;;;;;;;;;;6232126;23;20010;-78
2021/09/30 09:01:38;;;;;;;13.20;8.07;;;;;;;;;;6232097;23;20101;-75
2021/09/30 09:04:15;;;;;;;12.43;7.63;;;;;;;;;;6204786;23;20008;-76
2021/09/30 09:06:41;;;;;;;10.60;7.22;;;;;;;;;;6229622;23;20075;-75
2021/09/30 09:09:23;;;;;;;10.45;7.45;;;;;;;;;;6232062;23;20087;-74
2021/09/30 09:11:49;;;;;;;10.68;7.80;;;;;;;;;;6231913;23;20000;-75
2021/09/30 09:14:32;;;;;;;10.20;7.65;;;;;;;;;;6231233;23;20000;-75
2021/09/30 09:16:59;;;;;;;11.95;5.68;;;;;;;;;;6230220;23;20008;-75
2021/09/30 09:19:30;;;;;;;7.50;4.75;;;;;;;;;;6231593;23;20007;-76
2021/09/30 09:21:56;;;;;;;7.43;4.78;;;;;;;;;;6231618;23;20032;-75
2021/09/30 09:24:22;;;;;;;5.88;4.10;;;;;;;;;;6231886;23;20012;-75
2021/09/30 09:26:48;;;;;;;8.10;4.30;;;;;;;;;;6231712;23;20162;-75
2021/09/30 09:29:16;;;;;;;7.05;4.82;;;;;;;;;;6230515;23;20079;-74
2021/09/30 09:31:42;;;;;;;7.15;4.60;;;;;;;;;;6231604;23;20004;-75
2021/09/30 09:34:19;;;;;;;6.78;4.50;;;;;;;;;;6231365;23;20035;-74
2021/09/30 09:36:49;;;;;;;9.23;4.40;;;;;;;;;;6231500;23;20414;-74
2021/09/30 09:39:15;;;;;;;5.32;3.90;;;;;;;;;;6203980;23;20015;-77
2021/09/30 09:41:41;;;;;;;4.93;3.60;;;;;;;;;;6229364;23;20004;-76
2021/09/30 09:44:08;;;;;;;6.47;4.47;;;;;;;;;;6227281;23;20012;-76
2021/09/30 09:46:36;;;;;;;5.43;4.20;;;;;;;;;;6228921;23;20008;-77
2021/09/30 09:49:02;;;;;;;8.55;4.90;;;;;;;;;;6228781;23;20000;-75
2021/09/30 09:51:35;;;;;;;8.63;5.10;;;;;;;;;;6229038;22;20012;-75
2021/09/30 09:54:01;;;;;;;6.93;5.00;;;;;;;;;;6227037;23;20004;-76
2021/09/30 09:56:28;;;;;;;7.53;4.57;;;;;;;;;;6228908;23;20058;-75
2021/09/30 09:58:55;;;;;;;8.85;4.57;;;;;;;;;;6228874;23;20496;-76
2021/09/30 10:01:23;;;;;;;6.10;3.78;;;;;;;;;;6225556;23;20004;-76
2021/09/30 10:03:54;;;;;;;10.13;2.90;;;;;;;;;;6228413;23;20012;-76
2021/09/30 10:06:20;;;;;;;6.70;3.05;;;;;;;;;;6229438;23;20004;-74
2021/09/30 10:08:46;;;;;;;7.22;2.63;;;;;;;;;;6228721;23;20011;-76
2021/09/30 10:11:13;;;;;;;5.70;2.85;;;;;;;;;;6230829;23;20004;-76
2021/09/30 10:13:39;;;;;;;8.15;3.22;;;;;;;;;;6230348;23;20071;-75
2021/09/30 10:16:05;;;;;;;5.90;2.80;;;;;;;;;;6229149;23;20058;-74
2021/09/30 10:18:32;;;;;;;7.45;2.97;;;;;;;;;;6231371;23;20023;-74
2021/09/30 10:20:58;;;;;;;10.90;3.67;;;;;;;;;;6229992;23;20358;-79
2021/09/30 10:23:29;;;;;;;9.88;3.85;;;;;;;;;;6227821;23;20004;-78
2021/09/30 10:25:57;;;;;;;4.68;2.97;;;;;;;;;;6230043;23;20004;-75
2021/09/30 10:28:24;;;;;;;5.25;3.38;;;;;;;;;;6231463;23;20024;-76
2021/09/30 10:30:52;;;;;;;5.30;2.90;;;;;;;;;;6231249;23;20015;-76
2021/09/30 10:33:23;;;;;;;9.77;3.10;;;;;;;;;;6229743;23;20008;-76
2021/09/30 10:35:53;;;;;;;8.95;3.00;;;;;;;;;;6231808;23;20295;-75
2021/09/30 10:38:28;;;;;;;8.75;3.45;;;;;;;;;;6231499;23;20375;-75
2021/09/30 10:41:06;;;;;;;9.55;3.63;;;;;;;;;;6230855;23;20007;-75
2021/09/30 10:43:34;;;;;;;9.65;4.10;;;;;;;;;;6231104;23;20004;-75
2021/09/30 10:46:01;;;;;;;6.60;3.60;;;;;;;;;;6228305;23;20087;-77
2021/09/30 10:48:27;;;;;;;6.00;3.40;;;;;;;;;;6233217;23;20462;-76
2021/09/30 10:50:54;;;;;;;6.28;4.03;;;;;;;;;;6233453;23;20004;-77
2021/09/30 10:53:28;;;;;;;9.40;3.80;;;;;;;;;;6230875;22;20047;-78
2021/09/30 10:55:54;;;;;;;5.07;3.50;;;;;;;;;;6229781;23;20095;-76
2021/09/30 10:58:24;;;;;;;8.27;3.70;;;;;;;;;;6229562;23;20048;-76
2021/09/30 11:00:52;;;;;;;7.15;3.65;;;;;;;;;;6229985;23;20058;-76
2021/09/30 11:03:22;;;;;;;11.43;3.75;;;;;;;;;;6229585;23;20008;-77
2021/09/30 11:06:06;;;;;;;8.63;3.42;;;;;;;;;;6229303;23;20016;-76
2021/09/30 11:08:33;;;;;;;8.48;3.13;;;;;;;;;;6230765;23;20361;-75
2021/09/30 11:11:09;;;;;;;9.00;3.00;;;;;;;;;;6230052;23;20512;-75
2021/09/30 11:13:38;;;;;;;7.80;2.92;;;;;;;;;;6228786;23;20004;-75
2021/09/30 11:16:20;;;;;;;6.50;2.80;;;;;;;;;;6229940;23;20035;-75
2021/09/30 11:18:46;;;;;;;4.50;2.63;;;;;;;;;;6228888;23;20012;-76
2021/09/30 11:21:31;;;;;;;6.22;2.47;;;;;;;;;;6227397;23;20501;-77
2021/09/30 11:24:06;;;;;;;7.05;2.58;;;;;;;;;;6229379;23;20214;-76
2021/09/30 11:26:54;;;;;;;5.68;2.67;;;;;;;;;;6230023;23;20004;-79
2021/09/30 11:31:47;;;;;;;14.15;3.85;;;;;;;;;;6239628;23;20022;-76
2021/09/30 11:34:23;;;;;;;6.35;3.05;;;;;;;;;;6230179;23;20090;-75
2021/09/30 11:36:50;;;;;;;7.78;2.30;;;;;;;;;;6229855;23;20011;-75
2021/09/30 11:39:16;;;;;;;8.18;2.85;;;;;;;;;;6228068;23;20008;-75
2021/09/30 11:41:43;;;;;;;6.72;2.53;;;;;;;;;;6228975;23;20473;-75
2021/09/30 11:44:19;;;;;;;5.50;2.88;;;;;;;;;;6228981;23;20919;-75
2021/09/30 11:46:53;;;;;;;7.07;2.40;;;;;;;;;;6226218;23;19992;-77
2021/09/30 11:49:19;;;;;;;8.43;2.50;;;;;;;;;;6228564;23;20007;-75
2021/09/30 11:51:46;;;;;;;7.43;2.72;;;;;;;;;;6201213;23;20091;-76
2021/09/30 11:54:14;;;;;;;6.63;2.58;;;;;;;;;;6227301;23;20096;-75
2021/09/30 11:56:45;;;;;;;9.73;3.50;;;;;;;;;;6230376;23;20786;-80
2021/09/30 11:59:11;;;;;;;6.68;2.85;;;;;;;;;;6230123;23;20427;-74
2021/09/30 12:01:42;;;;;;;7.40;2.80;;;;;;;;;;6229748;23;20354;-76
2021/09/30 12:04:08;;;;;;;6.25;2.33;;;;;;;;;;6230018;23;20020;-74
2021/09/30 12:06:45;;;;;;;16.05;3.70;;;;;;;;;;6229733;23;20000;-74
2021/09/30 12:09:12;;;;;;;11.98;2.50;;;;;;;;;;6228440;23;20004;-75
2021/09/30 12:11:38;;;;;;;8.98;2.60;;;;;;;;;;6203204;23;20016;-75
2021/09/30 12:14:05;;;;;;;10.55;3.13;;;;;;;;;;6230627;23;20010;-77
2021/09/30 12:16:32;;;;;;;22.25;3.83;;;;;;;;;;6230794;23;20012;-77
2021/09/30 12:19:02;;;;;;;10.70;3.42;;;;;;;;;;6228392;23;20650;-79
2021/09/30 12:21:41;;;;;;;11.10;3.00;;;;;;;;;;6230160;23;20030;-75
2021/09/30 12:24:08;;;;;;;12.07;3.03;;;;;;;;;;6230387;23;20321;-78
2021/09/30 12:26:35;;;;;;;11.18;3.20;;;;;;;;;;6229668;23;20015;-76
2021/09/30 12:29:02;;;;;;;8.55;2.88;;;;;;;;;;6229210;23;20453;-74
2021/09/30 12:31:29;;;;;;;13.25;3.00;;;;;;;;;;6231777;23;20650;-81
2021/09/30 12:33:57;;;;;;;3.92;2.08;;;;;;;;;;6231903;23;20019;-78
2021/09/30 12:36:23;;;;;;;10.98;3.17;;;;;;;;;;6232819;23;20075;-74
2021/09/30 12:38:56;;;;;;;9.02;2.80;;;;;;;;;;6231187;23;20004;-77
2021/09/30 12:41:23;;;;;;;14.48;3.05;;;;;;;;;;6229289;23;20008;-83
2021/09/30 12:43:49;;;;;;;7.38;3.40;;;;;;;;;;6229545;23;20004;-75
2021/09/30 12:46:18;;;;;;;7.55;2.38;;;;;;;;;;6227676;23;20031;-75
2021/09/30 12:48:48;;;;;;;7.18;2.50;;;;;;;;;;6227954;23;20000;-82
2021/09/30 12:51:17;;;;;;;8.40;2.53;;;;;;;;;;6229868;22;20471;-73
2021/09/30 12:53:48;;;;;;;9.63;2.63;;;;;;;;;;6227637;23;20023;-83
2021/09/30 12:56:16;;;;;;;9.48;3.30;;;;;;;;;;6229634;23;20008;-75
2021/09/30 12:58:47;;;;;;;5.03;2.53;;;;;;;;;;6229812;23;20062;-77
2021/09/30 13:01:19;;;;;;;8.05;3.03;;;;;;;;;;6229350;23;20008;-74
2021/09/30 13:04:06;;;;;;;10.68;2.88;;;;;;;;;;6227492;23;20035;-75
2021/09/30 13:06:32;;;;;;;7.82;3.03;;;;;;;;;;6207417;23;20019;-77
2021/09/30 13:09:00;;;;;;;8.32;3.00;;;;;;;;;;6229332;23;20028;-76
2021/09/30 13:11:30;;;;;;;6.40;2.80;;;;;;;;;;6229379;23;20006;-75
2021/09/30 13:14:15;;;;;;;11.43;3.35;;;;;;;;;;6231743;23;20083;-76
2021/09/30 13:16:43;;;;;;;6.30;2.97;;;;;;;;;;6231521;23;20000;-79
2021/09/30 13:19:09;;;;;;;8.13;2.85;;;;;;;;;;6232002;23;20087;-74
2021/09/30 13:21:54;;;;;;;7.55;2.50;;;;;;;;;;6232137;23;20046;-74
2021/09/30 13:24:20;;;;;;;10.00;2.60;;;;;;;;;;6205335;23;20008;-84
2021/09/30 13:26:47;;;;;;;13.20;2.67;;;;;;;;;;6231930;23;20011;-74
2021/09/30 13:29:13;;;;;;;7.47;2.38;;;;;;;;;;6230695;23;20031;-74
2021/09/30 13:31:39;;;;;;;10.00;2.90;;;;;;;;;;6232009;23;20483;-73
2021/09/30 13:34:05;;;;;;;6.75;2.10;;;;;;;;;;6231637;23;20089;-78
2021/09/30 13:36:32;;;;;;;6.20;2.10;;;;;;;;;;6231885;23;20031;-75
2021/09/30 13:38:59;;;;;;;9.02;2.40;;;;;;;;;;6226220;23;20012;-76
2021/09/30 13:41:25;;;;;;;6.00;1.58;;;;;;;;;;6228390;23;20010;-81
2021/09/30 13:43:51;;;;;;;12.75;2.30;;;;;;;;;;6227968;23;20008;-82
2021/09/30 13:46:18;;;;;;;6.55;2.63;;;;;;;;;;6227232;23;20040;-76
2021/09/30 13:48:44;;;;;;;6.45;2.38;;;;;;;;;;6228852;23;20043;-80
2021/09/30 13:51:10;;;;;;;7.70;2.20;;;;;;;;;;6228638;22;20004;-79
2021/09/30 13:53:37;;;;;;;9.02;2.35;;;;;;;;;;6228433;23;20000;-78
2021/09/30 13:56:03;;;;;;;7.88;2.30;;;;;;;;;;6201334;23;20014;-77
2021/09/30 13:58:32;;;;;;;6.10;2.00;;;;;;;;;;6228743;23;20020;-82
2021/09/30 14:00:59;;;;;;;9.05;2.20;;;;;;;;;;6228934;23;20014;-76
2021/09/30 14:03:25;;;;;;;8.00;2.03;;;;;;;;;;6228025;23;20079;-80
2021/09/30 14:05:51;;;;;;;7.95;2.05;;;;;;;;;;6226279;23;20016;-84
2021/09/30 14:08:19;;;;;;;11.77;2.42;;;;;;;;;;6229327;23;20030;-78
2021/09/30 14:10:45;;;;;;;8.82;2.20;;;;;;;;;;6227414;23;20015;-81
2021/09/30 14:13:16;;;;;;;8.07;2.20;;;;;;;;;;6228285;23;20075;-82
2021/09/30 14:15:42;;;;;;;8.25;2.53;;;;;;;;;;6202426;23;20012;-81
2021/09/30 14:18:08;;;;;;;10.23;2.00;;;;;;;;;;6228155;23;20325;-80
2021/09/30 14:20:35;;;;;;;7.90;2.28;;;;;;;;;;6226289;23;20043;-77
2021/09/30 14:23:01;;;;;;;7.60;2.13;;;;;;;;;;6230094;23;20395;-83
2021/09/30 14:25:27;;;;;;;10.75;2.85;;;;;;;;;;6229623;23;20012;-80
2021/09/30 14:27:53;;;;;;;6.85;2.20;;;;;;;;;;6230298;23;20452;-78
2021/09/30 14:30:19;;;;;;;10.57;2.33;;;;;;;;;;6229133;23;20437;-79
2021/09/30 14:32:46;;;;;;;16.38;2.70;;;;;;;;;;6230678;23;20044;-75
2021/09/30 14:35:17;;;;;;;11.50;2.20;;;;;;;;;;6231009;23;20097;-76
2021/09/30 14:37:43;;;;;;;6.80;2.20;;;;;;;;;;6230188;23;20012;-80
2021/09/30 14:40:10;;;;;;;8.18;2.42;;;;;;;;;;6230004;23;20075;-72
2021/09/30 14:42:36;;;;;;;8.10;2.47;;;;;;;;;;6230927;23;20046;-76
2021/09/30 14:45:02;;;;;;;5.55;1.83;;;;;;;;;;6230531;23;20083;-77
2021/09/30 14:47:28;;;;;;;12.63;2.20;;;;;;;;;;6202251;23;20012;-76
2021/09/30 14:49:54;;;;;;;10.65;2.30;;;;;;;;;;6230448;23;20372;-78
2021/09/30 14:52:21;;;;;;;8.95;2.30;;;;;;;;;;6230542;22;20004;-75
2021/09/30 14:54:49;;;;;;;12.35;2.65;;;;;;;;;;6229297;23;20012;-76
2021/09/30 14:57:15;;;;;;;7.10;2.33;;;;;;;;;;6230373;23;20386;-75
2021/09/30 14:59:42;;;;;;;8.55;1.95;;;;;;;;;;6229927;23;20463;-78
2021/09/30 15:02:08;;;;;;;9.25;2.45;;;;;;;;;;6229467;23;20619;-77
2021/09/30 15:04:35;;;;;;;9.25;2.10;;;;;;;;;;6227210;23;20004;-76
2021/09/30 15:07:01;;;;;;;9.70;2.20;;;;;;;;;;6229931;23;20015;-79
2021/09/30 15:09:27;;;;;;;8.23;2.78;;;;;;;;;;6228235;23;20412;-76
2021/09/30 15:11:53;;;;;;;9.65;2.42;;;;;;;;;;6229525;23;20000;-75
2021/09/30 15:14:19;;;;;;;8.20;1.95;;;;;;;;;;6203505;23;20110;-78
2021/09/30 15:16:57;;;;;;;10.77;2.13;;;;;;;;;;6229657;23;20004;-75
2021/09/30 15:19:27;;;;;;;15.93;4.00;;;;;;;;;;6230422;23;20004;-77
2021/09/30 15:21:53;;;;;;;11.68;2.30;;;;;;;;;;6227843;23;20440;-81
2021/09/30 15:24:21;;;;;;;8.60;3.03;;;;;;;;;;6229525;23;20012;-76
2021/09/30 15:26:48;;;;;;;10.57;2.42;;;;;;;;;;6228751;23;20000;-76
2021/09/30 15:29:17;;;;;;;10.30;2.33;;;;;;;;;;6229063;23;20009;-75
2021/09/30 15:31:46;;;;;;;5.78;2.22;;;;;;;;;;6229600;23;20167;-76
2021/09/30 15:34:12;;;;;;;9.00;2.80;;;;;;;;;;6230053;23;20016;-75
2021/09/30 15:36:39;;;;;;;11.43;2.50;;;;;;;;;;6227756;23;20008;-76
2021/09/30 15:39:08;;;;;;;8.52;2.42;;;;;;;;;;6228826;23;20071;-77
2021/09/30 15:41:35;;;;;;;7.93;2.60;;;;;;;;;;6229738;23;20008;-76
2021/09/30 15:44:02;;;;;;;12.00;2.92;;;;;;;;;;6227622;23;20028;-74
2021/09/30 15:46:29;;;;;;;9.23;2.38;;;;;;;;;;6229430;23;20016;-79
2021/09/30 15:48:55;;;;;;;9.32;2.55;;;;;;;;;;6230272;23;20079;-81
2021/09/30 15:51:21;;;;;;;9.18;2.22;;;;;;;;;;6229336;22;20023;-83
2021/09/30 15:53:47;;;;;;;7.70;2.53;;;;;;;;;;6229842;23;20126;-82
2021/09/30 15:56:14;;;;;;;10.05;2.47;;;;;;;;;;6227863;23;20095;-76
2021/09/30 15:58:41;;;;;;;6.70;2.05;;;;;;;;;;6228957;23;20072;-78
2021/09/30 16:01:07;;;;;;;9.35;2.10;;;;;;;;;;6229517;23;20008;-75
2021/09/30 16:03:34;;;;;;;9.05;2.72;;;;;;;;;;6227106;23;20035;-75
2021/09/30 16:06:01;;;;;;;13.00;2.60;;;;;;;;;;6201316;23;20535;-81
2021/09/30 16:08:28;;;;;;;12.90;2.75;;;;;;;;;;6230228;23;20513;-79
2021/09/30 16:10:54;;;;;;;5.43;1.90;;;;;;;;;;6229267;23;20482;-74
2021/09/30 16:13:20;;;;;;;8.32;2.15;;;;;;;;;;6226904;23;20004;-82
2021/09/30 16:15:47;;;;;;;10.55;2.00;;;;;;;;;;6229234;23;20138;-74
2021/09/30 16:18:13;;;;;;;9.80;2.13;;;;;;;;;;6229123;23;20008;-77
2021/09/30 16:20:39;;;;;;;7.88;2.53;;;;;;;;;;6228674;23;20004;-74
2021/09/30 16:23:05;;;;;;;13.52;2.50;;;;;;;;;;6227808;23;20445;-74
2021/09/30 16:25:31;;;;;;;11.93;1.95;;;;;;;;;;6227641;23;20436;-73
2021/09/30 16:27:58;;;;;;;10.73;1.83;;;;;;;;;;6226553;23;20004;-73
2021/09/30 16:30:24;;;;;;;9.50;2.03;;;;;;;;;;6229523;23;20004;-74
2021/09/30 16:32:50;;;;;;;13.55;2.45;;;;;;;;;;6229031;23;20012;-76
2021/09/30 16:35:17;;;;;;;9.45;2.50;;;;;;;;;;6227229;23;20079;-76
2021/09/30 16:37:43;;;;;;;6.15;1.85;;;;;;;;;;6227101;23;20311;-79
2021/09/30 16:40:09;;;;;;;9.98;2.03;;;;;;;;;;6227724;23;20348;-73
2021/09/30 16:42:37;;;;;;;9.52;2.28;;;;;;;;;;6227730;23;20333;-73
2021/09/30 16:45:07;;;;;;;11.07;2.30;;;;;;;;;;6227636;23;20095;-77
2021/09/30 16:47:34;;;;;;;8.80;2.40;;;;;;;;;;6200298;23;20429;-73
2021/09/30 16:50:00;;;;;;;7.82;2.40;;;;;;;;;;6225280;22;20008;-75
2021/09/30 16:52:29;;;;;;;10.20;1.85;;;;;;;;;;6228892;23;20068;-75
2021/09/30 16:54:55;;;;;;;9.70;2.30;;;;;;;;;;6228893;23;20075;-74
2021/09/30 16:57:22;;;;;;;6.55;2.10;;;;;;;;;;6229059;23;20024;-73
2021/09/30 16:59:48;;;;;;;10.60;2.00;;;;;;;;;;6228682;23;20012;-75
2021/09/30 17:02:17;;;;;;;16.88;2.67;;;;;;;;;;6225740;23;20007;-80
2021/09/30 17:04:43;;;;;;;11.57;2.88;;;;;;;;;;6226782;23;20092;-76
2021/09/30 17:07:10;;;;;;;20.27;2.92;;;;;;;;;;6228930;23;20011;-75
2021/09/30 17:09:36;;;;;;;17.15;2.65;;;;;;;;;;6229597;23;20082;-74
2021/09/30 17:12:03;;;;;;;7.82;2.08;;;;;;;;;;6229218;23;20328;-76
2021/09/30 17:14:30;;;;;;;8.20;2.20;;;;;;;;;;6226842;23;20008;-76
2021/09/30 17:16:57;;;;;;;8.60;2.40;;;;;;;;;;6229172;23;20084;-74
2021/09/30 17:19:24;;;;;;;7.18;1.73;;;;;;;;;;6228931;23;20008;-74
2021/09/30 17:21:50;;;;;;;7.45;2.28;;;;;;;;;;6229287;23;20010;-77
2021/09/30 17:24:18;;;;;;;10.43;2.67;;;;;;;;;;6228994;23;20008;-79
2021/09/30 17:26:45;;;;;;;11.32;2.67;;;;;;;;;;6226489;23;20004;-76